createdAt,value
2019-05-07T00:01:52.639Z,56.27
2019-05-07T00:04:22.399Z,53.67
2019-05-07T00:06:52.620Z,49.03
2019-05-07T00:09:23.081Z,50.10
2019-05-07T00:11:53.171Z,46.03
2019-05-07T00:14:23.064Z,51.90
2019-05-07T00:16:53.458Z,43.30
2019-05-07T00:19:23.106Z,46.80
2019-05-07T00:21:52.749Z,45.00
2019-05-07T00:24:22.366Z,46.40
2019-05-07T00:26:53.058Z,53.10
2019-05-07T00:29:22.379Z,42.57
2019-05-07T00:31:52.094Z,46.33
2019-05-07T00:34:22.395Z,39.87
2019-05-07T00:37:07.401Z,40.33
2019-05-07T00:39:43.329Z,42.50
2019-05-07T00:42:13.503Z,42.50
2019-05-07T00:45:13.150Z,38.83
2019-05-07T00:47:28.506Z,37.23
2019-05-07T00:49:58.579Z,34.77
2019-05-07T00:52:27.092Z,41.20
2019-05-07T00:54:55.574Z,45.07
2019-05-07T00:57:24.077Z,43.70
2019-05-07T00:59:52.659Z,53.30
2019-05-07T01:02:22.651Z,45.20
2019-05-07T01:04:53.024Z,42.93
2019-05-07T01:07:22.971Z,51.87
2019-05-07T01:09:52.363Z,48.57
2019-05-07T01:12:22.175Z,40.93
2019-05-07T01:14:52.811Z,41.30
2019-05-07T01:17:22.690Z,51.40
2019-05-07T01:19:53.246Z,48.37
2019-05-07T01:22:22.214Z,46.40
2019-05-07T01:24:52.544Z,56.23
2019-05-07T01:27:22.610Z,49.00
2019-05-07T01:29:52.824Z,54.17
2019-05-07T01:32:38.023Z,49.77
2019-05-07T01:35:12.995Z,43.40
2019-05-07T01:37:42.178Z,53.10
2019-05-07T01:40:12.272Z,38.47
2019-05-07T01:42:42.360Z,38.13
2019-05-07T01:45:12.953Z,35.70
2019-05-07T01:47:42.475Z,30.80
2019-05-07T01:50:13.228Z,32.70
2019-05-07T01:52:42.704Z,35.53
2019-05-07T01:55:12.979Z,35.83
2019-05-07T01:57:42.134Z,35.23
2019-05-07T02:00:13.051Z,40.07
2019-05-07T02:02:54.906Z,35.47
2019-05-07T02:05:33.864Z,39.37
2019-05-07T02:08:07.023Z,36.87
2019-05-07T02:10:37.115Z,41.47
2019-05-07T02:13:05.551Z,42.20
2019-05-07T02:15:33.999Z,38.50
2019-05-07T02:18:02.456Z,39.20
2019-05-07T02:20:32.255Z,33.20
2019-05-07T02:23:02.700Z,35.47
2019-05-07T02:25:32.720Z,31.77
2019-05-07T02:28:02.168Z,40.10
2019-05-07T02:30:34.561Z,34.10
2019-05-07T02:33:03.799Z,32.60
2019-05-07T02:35:33.376Z,32.93
2019-05-07T02:38:14.969Z,35.50
2019-05-07T02:40:47.943Z,32.20
2019-05-07T02:43:16.402Z,35.80
2019-05-07T02:45:49.251Z,27.00
2019-05-07T02:48:19.339Z,26.23
2019-05-07T02:50:49.435Z,26.33
2019-05-07T02:53:19.515Z,22.77
2019-05-07T02:55:52.666Z,23.50
2019-05-07T02:58:19.779Z,19.30
2019-05-07T03:00:48.252Z,19.33
2019-05-07T03:03:16.682Z,18.50
2019-05-07T03:05:45.216Z,16.90
2019-05-07T03:08:13.813Z,13.83
2019-05-07T03:10:43.482Z,12.77
2019-05-07T03:13:13.707Z,16.90
2019-05-07T03:15:43.633Z,15.70
2019-05-07T03:18:13.769Z,16.53
2019-05-07T03:20:59.250Z,18.90
2019-05-07T03:23:29.327Z,17.53
2019-05-07T03:26:04.167Z,21.23
2019-05-07T03:28:33.962Z,20.47
2019-05-07T03:31:17.055Z,24.47
2019-05-07T03:33:55.218Z,17.20
2019-05-07T03:36:26.175Z,26.50
2019-05-07T03:38:53.764Z,27.73
2019-05-07T03:41:24.042Z,30.57
2019-05-07T03:43:52.763Z,31.80
2019-05-07T03:46:23.514Z,28.93
2019-05-07T03:48:53.189Z,30.87
2019-05-07T03:51:23.796Z,33.07
2019-05-07T03:53:53.666Z,36.87
2019-05-07T03:56:23.606Z,61.67
2019-05-07T03:58:52.955Z,37.90
2019-05-07T04:01:24.089Z,46.87
2019-05-07T04:03:53.301Z,47.67
2019-05-07T04:06:23.347Z,45.83
2019-05-07T04:08:53.195Z,49.17
2019-05-07T04:11:23.073Z,46.97
2019-05-07T04:13:53.559Z,49.57
2019-05-07T04:16:24.019Z,56.30
2019-05-07T04:18:53.146Z,59.60
2019-05-07T04:21:23.223Z,54.63
2019-05-07T04:23:54.136Z,59.50
2019-05-07T04:26:33.601Z,66.70
2019-05-07T04:29:05.607Z,54.07
2019-05-07T04:31:34.638Z,58.87
2019-05-07T04:34:04.862Z,50.33
2019-05-07T04:36:34.522Z,56.10
2019-05-07T04:39:03.403Z,50.03
2019-05-07T04:41:32.934Z,50.43
2019-05-07T04:44:03.686Z,119.73
2019-05-07T04:46:33.314Z,51.03
2019-05-07T04:49:03.678Z,48.73
2019-05-07T04:51:43.123Z,44.20
2019-05-07T04:54:13.213Z,47.07
2019-05-07T04:56:43.350Z,45.10
2019-05-07T04:59:13.160Z,48.37
2019-05-07T05:01:43.643Z,39.73
2019-05-07T05:04:25.329Z,40.30
2019-05-07T05:06:42.534Z,42.90
2019-05-07T05:09:12.581Z,44.70
2019-05-07T05:11:43.679Z,43.13
2019-05-07T05:14:13.609Z,45.40
2019-05-07T05:16:42.502Z,46.73
2019-05-07T05:19:12.618Z,41.87
2019-05-07T05:21:58.623Z,43.97
2019-05-07T05:24:32.959Z,43.57
2019-05-07T05:27:02.576Z,51.40
2019-05-07T05:29:32.354Z,54.13
2019-05-07T05:32:02.341Z,51.73
2019-05-07T05:34:32.798Z,45.73
2019-05-07T05:37:02.470Z,51.63
2019-05-07T05:39:32.058Z,48.03
2019-05-07T05:42:02.534Z,44.10
2019-05-07T05:44:32.917Z,40.30
2019-05-07T05:47:02.407Z,42.43
2019-05-07T05:49:32.203Z,43.47
2019-05-07T05:52:12.449Z,44.77
2019-05-07T05:54:48.302Z,34.83
2019-05-07T05:57:24.078Z,38.63
2019-05-07T05:59:55.394Z,39.27
2019-05-07T06:02:44.075Z,42.10
2019-05-07T06:05:33.882Z,38.27
2019-05-07T06:08:03.682Z,39.37
2019-05-07T06:10:33.942Z,34.23
2019-05-07T06:13:07.110Z,33.47
2019-05-07T06:15:53.522Z,34.53
2019-05-07T06:18:41.825Z,28.70
2019-05-07T06:21:26.779Z,33.87
2019-05-07T06:24:05.564Z,29.10
2019-05-07T06:26:34.067Z,32.73
2019-05-07T06:29:02.553Z,27.83
2019-05-07T06:31:32.708Z,27.73
2019-05-07T06:34:01.856Z,28.40
2019-05-07T06:36:32.885Z,30.93
2019-05-07T06:39:22.131Z,26.93
2019-05-07T06:42:07.313Z,27.13
2019-05-07T06:44:36.334Z,25.13
2019-05-07T06:47:04.866Z,25.27
2019-05-07T06:49:33.382Z,26.10
2019-05-07T06:52:03.049Z,25.80
2019-05-07T06:54:32.182Z,20.67
2019-05-07T06:57:02.033Z,20.43
2019-05-07T06:59:37.906Z,20.07
2019-05-07T07:02:22.690Z,20.90
2019-05-07T07:04:52.850Z,23.50
2019-05-07T07:07:30.971Z,19.27
2019-05-07T07:10:02.699Z,18.77
2019-05-07T07:12:33.223Z,22.90
2019-05-07T07:15:02.735Z,20.47
2019-05-07T07:17:32.690Z,14.40
2019-05-07T07:20:02.153Z,20.40
2019-05-07T07:22:31.963Z,13.90
2019-05-07T07:25:02.571Z,17.90
2019-05-07T07:27:32.239Z,15.47
2019-05-07T07:30:02.550Z,17.83
2019-05-07T07:32:35.331Z,13.70
2019-05-07T07:35:05.394Z,16.10
2019-05-07T07:37:35.479Z,22.33
2019-05-07T07:40:08.318Z,19.23
2019-05-07T07:42:36.763Z,14.63
2019-05-07T07:45:18.810Z,12.63
2019-05-07T07:47:47.687Z,11.57
2019-05-07T07:50:16.584Z,9.40
2019-05-07T07:52:45.258Z,7.57
2019-05-07T07:55:15.336Z,9.97
2019-05-07T07:57:45.406Z,10.97
2019-05-07T08:00:18.372Z,10.47
2019-05-07T08:02:48.650Z,7.23
2019-05-07T08:05:17.109Z,11.90
2019-05-07T08:07:45.568Z,10.00
2019-05-07T08:10:14.227Z,13.43
2019-05-07T08:12:42.674Z,7.90
2019-05-07T08:15:18.096Z,9.07
2019-05-07T08:17:41.953Z,11.10
2019-05-07T08:20:12.636Z,8.93
2019-05-07T08:22:42.340Z,7.80
2019-05-07T08:25:12.518Z,11.03
2019-05-07T08:27:41.995Z,6.90
2019-05-07T08:30:12.734Z,7.83
2019-05-07T08:32:45.767Z,9.67
2019-05-07T08:35:15.922Z,6.90
2019-05-07T08:37:44.395Z,7.50
2019-05-07T08:40:12.980Z,5.60
2019-05-07T08:42:41.925Z,5.47
2019-05-07T08:45:28.977Z,8.40
2019-05-07T08:48:07.971Z,7.60
2019-05-07T08:50:36.407Z,7.10
2019-05-07T08:53:04.875Z,8.20
2019-05-07T08:55:33.366Z,7.70
2019-05-07T08:58:02.312Z,5.10
2019-05-07T09:00:32.608Z,5.73
2019-05-07T09:03:01.680Z,5.73
2019-05-07T09:05:32.199Z,6.07
2019-05-07T09:08:02.287Z,8.83
2019-05-07T09:10:32.460Z,4.90
2019-05-07T09:13:02.596Z,7.50
2019-05-07T09:15:32.027Z,6.40
2019-05-07T09:18:02.000Z,6.27
2019-05-07T09:20:32.168Z,5.03
2019-05-07T09:23:02.156Z,7.60
2019-05-07T09:25:32.543Z,5.20
2019-05-07T09:28:02.648Z,4.30
2019-05-07T09:30:52.282Z,5.53
2019-05-07T09:33:25.207Z,8.00
2019-05-07T09:35:54.186Z,13.00
2019-05-07T09:38:22.638Z,6.10
2019-05-07T09:40:52.487Z,4.73
2019-05-07T09:43:22.031Z,6.70
2019-05-07T09:45:52.343Z,4.80
2019-05-07T09:48:22.168Z,4.57
2019-05-07T09:50:52.908Z,7.83
2019-05-07T09:53:22.718Z,3.93
2019-05-07T09:55:51.649Z,11.20
2019-05-07T09:58:34.954Z,5.67
2019-05-07T10:00:50.705Z,8.40
2019-05-07T10:03:19.190Z,10.03
2019-05-07T10:05:47.646Z,6.53
2019-05-07T10:08:16.151Z,6.30
2019-05-07T10:10:46.553Z,6.20
2019-05-07T10:13:16.734Z,5.70
2019-05-07T10:15:45.285Z,6.03
2019-05-07T10:18:15.064Z,5.27
2019-05-07T10:20:43.989Z,5.40
2019-05-07T10:23:22.776Z,6.70
2019-05-07T10:25:52.907Z,6.63
2019-05-07T10:28:22.715Z,5.80
2019-05-07T10:30:52.182Z,5.57
2019-05-07T10:33:22.815Z,6.73
2019-05-07T10:35:52.966Z,8.23
2019-05-07T10:38:21.824Z,10.10
2019-05-07T10:40:50.418Z,8.57
2019-05-07T10:43:19.000Z,8.00
2019-05-07T10:45:49.166Z,6.40
2019-05-07T10:48:25.104Z,8.70
2019-05-07T10:50:55.194Z,6.87
2019-05-07T10:53:23.727Z,15.63
2019-05-07T10:55:52.161Z,7.53
2019-05-07T10:58:20.614Z,9.10
2019-05-07T11:00:49.126Z,6.30
2019-05-07T11:03:17.670Z,13.23
2019-05-07T11:05:46.184Z,8.40
2019-05-07T11:08:14.861Z,7.67
2019-05-07T11:10:43.634Z,8.73
2019-05-07T11:13:12.951Z,9.57
2019-05-07T11:15:43.327Z,9.20
2019-05-07T11:18:13.767Z,8.63
2019-05-07T11:20:49.798Z,10.20
2019-05-07T11:23:12.955Z,7.47
2019-05-07T11:25:42.140Z,8.40
2019-05-07T11:28:12.367Z,8.37
2019-05-07T11:30:42.536Z,9.50
2019-05-07T11:33:12.830Z,10.30
2019-05-07T11:35:42.291Z,6.70
2019-05-07T11:38:18.783Z,9.90
2019-05-07T11:40:42.793Z,9.27
2019-05-07T11:43:22.132Z,9.33
2019-05-07T11:45:54.230Z,13.47
2019-05-07T11:48:24.363Z,9.57
2019-05-07T11:51:04.302Z,6.80
2019-05-07T11:53:34.472Z,8.47
2019-05-07T11:56:03.118Z,11.43
2019-05-07T11:58:32.512Z,7.20
2019-05-07T12:01:03.960Z,9.37
2019-05-07T12:03:32.691Z,9.90
2019-05-07T12:06:02.043Z,10.10
2019-05-07T12:08:39.408Z,8.03
2019-05-07T12:11:02.324Z,10.50
2019-05-07T12:13:32.303Z,8.80
2019-05-07T12:16:02.987Z,12.00
2019-05-07T12:18:32.004Z,7.20
2019-05-07T12:21:03.880Z,6.40
2019-05-07T12:23:33.016Z,9.47
2019-05-07T12:26:02.270Z,6.53
2019-05-07T12:28:32.874Z,7.70
2019-05-07T12:31:17.776Z,7.23
2019-05-07T12:33:59.722Z,5.60
2019-05-07T12:36:28.186Z,7.50
2019-05-07T12:38:56.630Z,9.47
2019-05-07T12:41:34.345Z,8.80
2019-05-07T12:44:06.056Z,7.57
2019-05-07T12:46:35.361Z,7.80
2019-05-07T12:49:04.546Z,6.57
2019-05-07T12:51:37.816Z,5.13
2019-05-07T12:54:22.674Z,6.50
2019-05-07T12:56:52.012Z,5.63
2019-05-07T12:59:21.866Z,7.40
2019-05-07T13:02:18.307Z,5.97
2019-05-07T13:04:41.826Z,9.13
2019-05-07T13:07:23.818Z,6.20
2019-05-07T13:09:52.672Z,8.90
2019-05-07T13:12:21.743Z,6.10
2019-05-07T13:14:51.786Z,7.47
2019-05-07T13:17:22.431Z,8.80
2019-05-07T13:19:52.523Z,10.50
2019-05-07T13:22:21.970Z,6.33
2019-05-07T13:24:52.732Z,7.77
2019-05-07T13:27:21.598Z,6.53
2019-05-07T13:29:50.214Z,10.40
2019-05-07T13:32:20.203Z,6.93
2019-05-07T13:34:48.643Z,7.77
2019-05-07T13:37:18.995Z,7.53
2019-05-07T13:39:49.159Z,13.90
2019-05-07T13:42:35.378Z,6.97
2019-05-07T13:45:07.513Z,9.00
2019-05-07T13:47:36.787Z,6.63
2019-05-07T13:50:06.937Z,6.77
2019-05-07T13:52:35.419Z,8.77
2019-05-07T13:55:05.611Z,9.33
2019-05-07T13:57:34.144Z,9.40
2019-05-07T14:00:05.031Z,5.93
2019-05-07T14:02:33.612Z,9.03
2019-05-07T14:05:02.125Z,6.10
2019-05-07T14:07:32.351Z,9.07
2019-05-07T14:10:02.098Z,9.20
2019-05-07T14:12:33.487Z,8.60
2019-05-07T14:15:02.173Z,5.80
2019-05-07T14:17:30.718Z,5.90
2019-05-07T14:19:59.170Z,8.93
2019-05-07T14:22:27.961Z,6.27
2019-05-07T14:24:56.503Z,5.23
2019-05-07T14:27:24.938Z,5.30
2019-05-07T14:29:53.403Z,9.93
2019-05-07T14:32:23.474Z,7.53
2019-05-07T14:35:09.663Z,8.07
2019-05-07T14:37:41.724Z,5.90
2019-05-07T14:40:12.767Z,6.97
2019-05-07T14:42:52.523Z,4.80
2019-05-07T14:45:23.602Z,8.47
2019-05-07T14:47:52.214Z,8.00
2019-05-07T14:50:22.623Z,9.13
2019-05-07T14:52:54.801Z,5.87
2019-05-07T14:55:22.257Z,9.53
2019-05-07T14:57:52.420Z,5.93
2019-05-07T15:00:22.556Z,9.60
2019-05-07T15:02:52.535Z,9.67
2019-05-07T15:05:22.351Z,5.83
2019-05-07T15:07:51.350Z,7.10
2019-05-07T15:10:22.087Z,4.73
2019-05-07T15:12:52.033Z,6.87
2019-05-07T15:15:22.005Z,6.37
2019-05-07T15:17:55.141Z,6.20
2019-05-07T15:20:23.699Z,6.07
2019-05-07T15:23:11.978Z,5.97
2019-05-07T15:25:41.661Z,7.17
2019-05-07T15:28:12.140Z,8.60
2019-05-07T15:30:54.290Z,11.30
2019-05-07T15:33:22.816Z,5.70
2019-05-07T15:35:52.035Z,5.90
2019-05-07T15:38:21.719Z,9.97
2019-05-07T15:40:51.916Z,11.43
2019-05-07T15:43:20.611Z,10.47
2019-05-07T15:45:52.320Z,6.43
2019-05-07T15:48:22.023Z,6.77
2019-05-07T15:50:51.990Z,6.83
2019-05-07T15:53:37.118Z,6.40
2019-05-07T15:56:05.585Z,6.60
2019-05-07T15:58:34.186Z,7.17
2019-05-07T16:01:02.634Z,7.30
2019-05-07T16:03:32.730Z,5.30
2019-05-07T16:06:03.507Z,9.43
2019-05-07T16:08:33.006Z,9.03
2019-05-07T16:11:03.496Z,8.10
2019-05-07T16:13:33.341Z,13.73
2019-05-07T16:16:02.395Z,10.30
2019-05-07T16:18:35.699Z,9.97
2019-05-07T16:21:05.046Z,10.70
2019-05-07T16:23:33.683Z,11.20
2019-05-07T16:26:02.460Z,11.40
2019-05-07T16:28:32.495Z,13.20
2019-05-07T16:31:02.571Z,9.60
2019-05-07T16:33:32.026Z,10.60
2019-05-07T16:36:02.147Z,8.83
2019-05-07T16:38:32.655Z,12.57
2019-05-07T16:41:00.994Z,14.87
2019-05-07T16:43:29.445Z,7.97
2019-05-07T16:45:57.907Z,7.73
2019-05-07T16:48:26.470Z,8.97
2019-05-07T16:50:55.870Z,12.90
2019-05-07T16:53:29.294Z,8.10
2019-05-07T16:55:54.582Z,10.77
2019-05-07T16:58:24.682Z,12.80
2019-05-07T17:00:54.787Z,10.97
2019-05-07T17:03:31.886Z,8.73
2019-05-07T17:06:01.811Z,9.03
2019-05-07T17:08:32.100Z,9.97
2019-05-07T17:11:00.567Z,8.10
2019-05-07T17:13:29.085Z,10.97
2019-05-07T17:15:58.589Z,9.47
2019-05-07T17:18:27.790Z,8.30
2019-05-07T17:20:56.930Z,8.27
2019-05-07T17:23:25.726Z,16.70
2019-05-07T17:25:54.497Z,11.60
2019-05-07T17:28:23.025Z,11.93
2019-05-07T17:30:52.460Z,6.93
2019-05-07T17:33:23.003Z,6.57
2019-05-07T17:35:51.872Z,16.70
2019-05-07T17:38:22.804Z,7.57
2019-05-07T17:40:52.197Z,9.13
2019-05-07T17:43:21.939Z,7.20
2019-05-07T17:45:52.251Z,10.30
2019-05-07T17:48:23.010Z,12.07
2019-05-07T17:50:58.310Z,7.50
2019-05-07T17:53:27.015Z,4.83
2019-05-07T17:55:55.687Z,7.57
2019-05-07T17:58:24.298Z,7.80
2019-05-07T18:00:54.605Z,6.90
2019-05-07T18:03:32.221Z,7.60
2019-05-07T18:06:02.283Z,9.00
2019-05-07T18:08:32.514Z,5.90
2019-05-07T18:11:02.405Z,8.03
2019-05-07T18:13:32.385Z,13.13
2019-05-07T18:16:03.126Z,8.67
2019-05-07T18:18:32.809Z,10.03
2019-05-07T18:21:02.319Z,11.00
2019-05-07T18:23:32.066Z,7.40
2019-05-07T18:26:00.970Z,15.80
2019-05-07T18:28:29.545Z,12.37
2019-05-07T18:30:58.830Z,16.40
2019-05-07T18:33:34.686Z,14.60
2019-05-07T18:36:03.237Z,16.73
2019-05-07T18:38:32.937Z,38.50
2019-05-07T18:41:02.618Z,21.10
2019-05-07T18:43:33.208Z,16.90
2019-05-07T18:46:02.317Z,13.90
2019-05-07T18:48:31.052Z,11.13
2019-05-07T18:50:59.507Z,9.23
2019-05-07T18:53:27.958Z,7.50
2019-05-07T18:55:56.554Z,8.90
2019-05-07T18:58:25.079Z,9.40
2019-05-07T19:01:02.652Z,11.50
2019-05-07T19:03:32.513Z,10.33
2019-05-07T19:06:02.818Z,13.67
2019-05-07T19:08:32.663Z,15.23
2019-05-07T19:11:01.712Z,12.97
2019-05-07T19:13:32.470Z,7.80
2019-05-07T19:16:00.345Z,10.93
2019-05-07T19:18:28.867Z,11.90
2019-05-07T19:20:57.311Z,13.53
2019-05-07T19:23:25.762Z,9.73
2019-05-07T19:25:54.285Z,14.23
2019-05-07T19:28:22.738Z,7.70
2019-05-07T19:30:52.822Z,11.70
2019-05-07T19:33:26.474Z,10.50
2019-05-07T19:35:52.847Z,8.27
2019-05-07T19:38:21.506Z,7.70
2019-05-07T19:40:50.014Z,11.97
2019-05-07T19:43:18.477Z,12.17
2019-05-07T19:45:47.065Z,11.57
2019-05-07T19:48:15.508Z,8.40
2019-05-07T19:50:43.959Z,11.87
2019-05-07T19:53:12.609Z,11.40
2019-05-07T19:55:59.206Z,13.03
2019-05-07T19:58:27.634Z,11.00
2019-05-07T20:00:57.308Z,11.83
2019-05-07T20:03:25.920Z,11.80
2019-05-07T20:05:54.372Z,9.77
2019-05-07T20:08:22.970Z,10.70
2019-05-07T20:10:55.768Z,11.43
2019-05-07T20:13:26.964Z,8.60
2019-05-07T20:15:56.090Z,7.47
2019-05-07T20:18:24.538Z,14.63
2019-05-07T20:20:53.000Z,16.60
2019-05-07T20:23:22.795Z,14.07
2019-05-07T20:25:52.841Z,20.83
2019-05-07T20:28:21.831Z,12.03
2019-05-07T20:30:52.586Z,12.23
2019-05-07T20:33:21.972Z,15.97
2019-05-07T20:35:52.687Z,17.13
2019-05-07T20:38:20.742Z,13.87
2019-05-07T20:40:49.197Z,12.37
2019-05-07T20:43:17.690Z,16.53
2019-05-07T20:45:46.144Z,12.80
2019-05-07T20:48:14.679Z,15.80
2019-05-07T20:50:43.118Z,7.83
2019-05-07T20:53:11.584Z,9.70
2019-05-07T20:55:47.589Z,11.73
2019-05-07T20:58:16.074Z,14.50
2019-05-07T21:00:44.814Z,12.77
2019-05-07T21:03:19.282Z,13.23
2019-05-07T21:05:52.972Z,12.20
2019-05-07T21:08:22.700Z,12.97
2019-05-07T21:10:53.570Z,12.13
2019-05-07T21:13:30.196Z,12.30
2019-05-07T21:15:52.716Z,13.07
2019-05-07T21:18:23.262Z,14.17
2019-05-07T21:20:53.003Z,15.10
2019-05-07T21:23:23.092Z,14.57
2019-05-07T21:25:52.735Z,15.00
2019-05-07T21:28:22.476Z,17.47
2019-05-07T21:30:52.171Z,13.80
2019-05-07T21:33:22.847Z,15.03
2019-05-07T21:35:52.359Z,13.60
2019-05-07T21:38:22.298Z,15.33
2019-05-07T21:40:51.082Z,12.40
2019-05-07T21:43:21.869Z,15.43
2019-05-07T21:45:49.772Z,22.30
2019-05-07T21:48:18.213Z,10.53
2019-05-07T21:50:46.664Z,11.63
2019-05-07T21:53:19.681Z,11.03
2019-05-07T21:55:59.866Z,11.00
2019-05-07T21:58:39.742Z,12.10
2019-05-07T22:01:12.662Z,13.73
2019-05-07T22:03:43.190Z,13.27
2019-05-07T22:06:12.871Z,15.70
2019-05-07T22:08:41.627Z,19.97
2019-05-07T22:11:12.385Z,18.23
2019-05-07T22:13:43.537Z,22.80
2019-05-07T22:16:13.062Z,18.90
2019-05-07T22:18:42.689Z,15.90
2019-05-07T22:21:12.496Z,14.27
2019-05-07T22:23:42.856Z,18.43
2019-05-07T22:26:20.131Z,17.43
2019-05-07T22:28:42.022Z,15.97
2019-05-07T22:31:14.906Z,13.00
2019-05-07T22:33:44.999Z,13.50
2019-05-07T22:36:13.441Z,13.07
2019-05-07T22:38:41.900Z,12.60
2019-05-07T22:41:12.689Z,11.37
2019-05-07T22:43:42.387Z,12.97
2019-05-07T22:46:12.487Z,16.20
2019-05-07T22:48:41.918Z,20.43
2019-05-07T22:51:12.209Z,16.17
2019-05-07T22:53:40.771Z,12.60
2019-05-07T22:56:09.216Z,10.50
2019-05-07T22:58:42.071Z,16.80
2019-05-07T23:01:13.057Z,18.37
2019-05-07T23:03:43.029Z,17.37
2019-05-07T23:06:12.316Z,15.00
2019-05-07T23:08:42.411Z,14.90
2019-05-07T23:11:12.261Z,13.77
2019-05-07T23:13:42.795Z,21.20
2019-05-07T23:16:12.537Z,16.90
2019-05-07T23:18:42.877Z,18.07
2019-05-07T23:21:11.378Z,16.77
2019-05-07T23:23:42.128Z,12.40
2019-05-07T23:26:12.199Z,14.40
2019-05-07T23:28:41.850Z,15.63
2019-05-07T23:31:12.159Z,13.63
2019-05-07T23:33:40.793Z,17.17
2019-05-07T23:36:09.242Z,20.70
2019-05-07T23:38:37.731Z,19.77
2019-05-07T23:41:16.958Z,21.53
2019-05-07T23:43:47.029Z,24.07
2019-05-07T23:46:15.490Z,18.20
2019-05-07T23:48:44.014Z,23.87
2019-05-07T23:51:12.666Z,20.10
2019-05-07T23:53:44.166Z,16.63
2019-05-07T23:56:13.109Z,19.33
2019-05-07T23:58:42.037Z,19.17
